Surat Thani, Thailand

7:17 PM ICT on September 28, 2016 (GMT +0700)
Surat Thani | | Change Station

Elev 23 ft 9.13 °N, 99.15 °E | Updated 17 minutes ago

Mostly Cloudy
Mostly Cloudy
79 °F
Feels Like 79 °F
N
6
Wind Variable Wind from SSW

Today
High -- | Low -- °F
--% Chance of Precip.
Yesterday
High -- | Low -- °F
Precip. -- in
Pressure 29.74 in
Visibility 5.0 miles
Clouds Scattered Clouds 2000 ft
Mostly Cloudy 12000 ft
Dew Point 73 °F
Humidity 83%
Rainfall 0.00 in
Snow Depth Not available.
6:12 AM 6:15 PM
Waning Crescent, 6% visible
METAR VTSB 281200Z 21005KT 8000 SCT020 BKN120 26/23 Q1007
Pressure 29.74 in
Visibility 5.0 miles
Clouds Scattered Clouds 2000 ft
Mostly Cloudy 12000 ft
Dew Point 73 °F
Humidity 83%
Rainfall 0.00 in
Snow Depth Not available.
6:12 AM 6:15 PM
Waning Crescent, 6% visible
METAR VTSB 281200Z 21005KT 8000 SCT020 BKN120 26/23 Q1007

10-Day Weather Forecast

No radar image for this location.
×

Almanac

Astronomy

Sep. 28, 2016 Rise Set
Actual Time
Civil Twilight
Nautical Twilight
Astronomical Twilight
Moon
Length of Visible Light
Length of Day
Tomorrow will be .
, % of the Moon is Illuminated

Today's Extremes

Country Highs Country Lows

Community

WunderPhotos

Upload Photos

1,942,236 photos uploaded!

WunderBlog® & News

Nearby

Air Quality

  Air Quality AQ Index Pollutant
Not available.

Snow Depth

Station Depth Elevation

Earthquake Activity

City Distance Mag. Time & Date
Minimum magnitude displayed is 2.5.

Coastal Water Temperatures

Place Temperature

Stations

Nearby Weather Stations

Station Location Temp. Windchill Dew Point Humidity Wind Precip. Elev Updated Type